createdAt,value
2022-11-14T12:34:26.683Z,1005.08
2022-11-14T12:35:26.615Z,1005.09
2022-11-14T12:36:26.789Z,1005.11
2022-11-14T12:37:26.672Z,1005.12
2022-11-14T12:38:27.227Z,1005.13
2022-11-14T12:39:26.640Z,1005.1
2022-11-14T12:40:26.657Z,1005.11
2022-11-14T12:41:26.675Z,1005.12
2022-11-14T12:42:26.689Z,1005.09
2022-11-14T12:43:28.662Z,1005.07
2022-11-14T12:44:26.781Z,1004.99
2022-11-14T12:45:26.743Z,1005.02
2022-11-14T12:46:26.762Z,1005.02
2022-11-14T12:47:26.819Z,1005.04
2022-11-14T12:48:42.192Z,1005.05
2022-11-14T12:49:42.229Z,1005.04
2022-11-14T12:50:42.337Z,1005.06
2022-11-14T12:51:42.249Z,1005.04
2022-11-14T12:52:42.264Z,1005.03
2022-11-14T12:53:42.308Z,1005.04
2022-11-14T12:54:42.305Z,1005
2022-11-14T12:55:42.328Z,1005
2022-11-14T12:56:42.347Z,1004.99
2022-11-14T12:57:42.366Z,1005
2022-11-14T12:58:42.380Z,1005
2022-11-14T12:59:42.394Z,1005.01
2022-11-14T13:00:42.427Z,1005
2022-11-14T13:01:42.514Z,1005
2022-11-14T13:02:42.450Z,1005.06
2022-11-14T13:03:42.465Z,1005.04
2022-11-14T13:04:42.489Z,1005.06
2022-11-14T13:05:42.538Z,1005.07
2022-11-14T13:06:42.538Z,1005.07
2022-11-14T13:07:42.602Z,1004.99
2022-11-14T13:08:42.777Z,1004.98
2022-11-14T13:09:42.578Z,1004.9
2022-11-14T13:10:42.609Z,1004.9
2022-11-14T13:11:42.617Z,1004.87
2022-11-14T13:12:42.650Z,1004.85
2022-11-14T13:13:42.689Z,1004.83
2022-11-14T13:14:42.685Z,1004.81
2022-11-14T13:15:47.514Z,1004.87
2022-11-14T13:16:42.727Z,1004.86
2022-11-14T13:17:42.743Z,1004.83
2022-11-14T13:18:42.770Z,1004.86
2022-11-14T13:19:42.777Z,1004.8
2022-11-14T13:20:42.802Z,1004.75
2022-11-14T13:21:45.544Z,1004.74
2022-11-14T13:22:42.840Z,1004.73
2022-11-14T13:23:42.864Z,1004.69
2022-11-14T13:24:42.869Z,1004.62
2022-11-14T13:25:42.886Z,1004.61
2022-11-14T13:26:42.925Z,1004.61
2022-11-14T13:28:06.340Z,1004.62
2022-11-14T13:28:42.946Z,1004.56
2022-11-14T13:29:43.000Z,1004.53
2022-11-14T13:30:42.997Z,1004.5
2022-11-14T13:31:42.987Z,1004.48
2022-11-14T13:32:43.020Z,1004.47
2022-11-14T13:33:43.022Z,1004.46
2022-11-14T13:34:43.041Z,1004.37
2022-11-14T13:35:43.053Z,1004.39
2022-11-14T13:36:43.100Z,1004.34
2022-11-14T13:37:43.104Z,1004.35
2022-11-14T13:38:43.101Z,1004.34
2022-11-14T15:02:53.892Z,1003.82
2022-11-14T15:03:53.859Z,1003.79
2022-11-14T15:04:53.872Z,1003.77
2022-11-14T15:05:53.881Z,1003.82
2022-11-14T15:06:53.919Z,1003.83
2022-11-14T15:07:53.897Z,1003.84
2022-11-14T15:08:53.912Z,1003.87
2022-11-14T15:09:53.936Z,1003.89
2022-11-14T15:10:53.928Z,1003.87
2022-11-14T15:11:53.937Z,1003.88
2022-11-14T15:12:53.954Z,1003.87
2022-11-14T15:13:53.968Z,1003.89
2022-11-14T15:14:53.969Z,1003.92
2022-11-14T15:15:53.978Z,1003.93
2022-11-14T15:16:53.996Z,1003.91
2022-11-14T15:17:53.996Z,1003.86
2022-11-14T15:18:54.056Z,1003.86
2022-11-14T15:19:54.076Z,1003.85
2022-11-14T15:20:54.027Z,1003.86
2022-11-14T15:21:54.034Z,1003.9
2022-11-14T15:22:54.046Z,1003.9
2022-11-14T15:23:54.058Z,1003.87
2022-11-14T15:24:54.065Z,1003.89
2022-11-14T15:25:54.280Z,1003.91
2022-11-14T15:26:54.161Z,1003.96
2022-11-14T15:27:54.096Z,1003.94
2022-11-14T15:28:54.097Z,1003.88
2022-11-14T15:29:54.189Z,1003.89
2022-11-14T15:30:54.122Z,1003.9
2022-11-14T15:31:54.142Z,1003.9
2022-11-14T15:32:54.153Z,1003.89
2022-11-14T15:33:54.147Z,1003.88
2022-11-14T15:34:54.185Z,1003.88
2022-11-14T15:35:54.181Z,1003.92
2022-11-14T15:36:54.175Z,1003.84
2022-11-14T15:37:54.183Z,1003.9
2022-11-14T15:38:54.433Z,1003.91
2022-11-14T15:39:54.201Z,1003.9
2022-11-14T15:40:54.208Z,1003.88
2022-11-14T15:41:54.223Z,1003.93
2022-11-14T15:42:54.264Z,1003.91
2022-11-14T15:43:54.235Z,1003.87
2022-11-14T15:44:54.270Z,1003.86
2022-11-14T15:45:54.251Z,1003.85
2022-11-14T15:46:54.343Z,1003.83
2022-11-14T15:47:54.375Z,1003.84
2022-11-14T15:48:54.283Z,1003.82
2022-11-14T15:49:54.303Z,1003.86
2022-11-14T15:50:54.321Z,1003.89
2022-11-14T15:51:54.518Z,1003.92
2022-11-14T15:52:54.317Z,1003.87
2022-11-14T15:53:54.344Z,1003.84
2022-11-14T15:54:54.326Z,1003.81
2022-11-14T15:55:54.352Z,1003.85
2022-11-14T15:56:54.359Z,1003.83
2022-11-14T15:58:13.548Z,1003.83
2022-11-14T15:58:54.603Z,1003.85
2022-11-14T15:59:54.381Z,1003.83
2022-11-14T16:00:54.386Z,1003.82
2022-11-14T16:01:54.488Z,1003.81
2022-11-14T16:02:54.393Z,1003.9
2022-11-14T16:03:54.412Z,1003.94
2022-11-14T16:04:54.406Z,1003.93
2022-11-14T16:05:54.424Z,1003.91
2022-11-14T16:06:54.505Z,1003.93
2022-11-14T16:07:54.433Z,1003.92
2022-11-14T16:08:54.448Z,1003.96
2022-11-14T16:09:54.465Z,1003.94
2022-11-14T16:10:54.457Z,1003.97
2022-11-14T16:11:54.472Z,1003.93
2022-11-14T16:12:54.474Z,1003.94
2022-11-14T16:13:54.522Z,1003.92
2022-11-14T16:14:54.496Z,1003.9
2022-11-14T16:15:54.514Z,1003.92
2022-11-14T16:16:54.527Z,1003.9
2022-11-14T16:17:54.532Z,1003.85
2022-11-14T16:18:54.537Z,1003.83
2022-11-14T16:19:54.540Z,1003.79
2022-11-14T16:20:54.546Z,1003.8
2022-11-14T16:21:54.551Z,1003.8
2022-11-14T16:22:54.582Z,1003.79
2022-11-14T16:23:54.572Z,1003.76
2022-11-14T16:24:54.583Z,1003.83
2022-11-14T16:25:54.597Z,1003.82
2022-11-14T16:26:54.596Z,1003.82
2022-11-14T16:27:54.597Z,1003.82
2022-11-14T16:28:54.638Z,1003.83
2022-11-14T16:29:54.617Z,1003.82
2022-11-14T16:30:54.625Z,1003.82
2022-11-14T16:31:54.644Z,1003.81
2022-11-14T16:32:54.854Z,1003.75
2022-11-14T16:33:54.667Z,1003.74
2022-11-14T16:34:54.660Z,1003.76
2022-11-14T16:35:54.670Z,1003.72
2022-11-14T16:36:54.890Z,1003.79
2022-11-14T16:37:54.689Z,1003.77
2022-11-14T16:38:54.732Z,1003.76
2022-11-14T16:39:54.707Z,1003.77
2022-11-14T16:40:55.008Z,1003.78
2022-11-14T16:41:54.711Z,1003.83
2022-11-14T16:42:54.728Z,1003.75
2022-11-14T16:43:54.726Z,1003.7
2022-11-14T16:44:54.780Z,1003.75
2022-11-14T16:45:54.741Z,1003.66
2022-11-14T16:46:54.753Z,1003.76
2022-11-14T16:47:54.771Z,1003.75
2022-11-14T16:48:54.768Z,1003.74
2022-11-14T16:49:55.380Z,1003.67
2022-11-14T16:50:56.887Z,1003.73
2022-11-14T18:46:10.373Z,1003.71
2022-11-14T18:47:10.036Z,1003.66
2022-11-14T18:48:09.975Z,1003.68
2022-11-14T18:49:09.977Z,1003.67
2022-11-14T18:50:09.990Z,1003.65
2022-11-14T18:51:09.990Z,1003.57
2022-11-14T18:52:15.731Z,1003.55
2022-11-14T18:53:10.198Z,1003.53
2022-11-14T18:54:10.021Z,1003.47
2022-11-14T18:55:10.025Z,1003.48
2022-11-14T18:56:10.048Z,1003.43
2022-11-14T18:57:10.019Z,1003.4
2022-11-14T18:58:10.018Z,1003.38
2022-11-14T18:59:10.031Z,1003.34
2022-11-14T19:00:10.040Z,1003.38
2022-11-14T19:01:10.104Z,1003.36
2022-11-14T19:02:10.121Z,1003.44
2022-11-14T19:03:10.085Z,1003.46
2022-11-14T19:04:36.068Z,1003.49
2022-11-14T19:05:36.051Z,1003.46
2022-11-14T19:06:36.059Z,1003.47
2022-11-14T19:07:36.092Z,1003.54
2022-11-14T19:08:36.047Z,1003.48
2022-11-14T19:09:36.268Z,1003.45
2022-11-14T19:12:36.193Z,1003.43
2022-11-14T19:13:36.304Z,1003.39
2022-11-14T19:14:36.401Z,1003.39
2022-11-14T19:15:36.206Z,1003.34
2022-11-14T19:16:36.142Z,1003.31
2022-11-14T19:17:36.176Z,1003.3
2022-11-14T19:18:36.129Z,1003.34
2022-11-14T19:19:36.141Z,1003.35
2022-11-14T19:20:36.139Z,1003.35
2022-11-14T19:21:36.123Z,1003.35
2022-11-14T19:22:36.129Z,1003.4
2022-11-14T19:25:48.732Z,1003.44
2022-11-14T19:26:48.787Z,1003.37
2022-11-14T19:28:50.123Z,1003.42
2022-11-14T19:29:50.086Z,1003.4
2022-11-14T19:30:50.090Z,1003.43
2022-11-14T19:31:50.088Z,1003.44
2022-11-14T19:32:50.118Z,1003.44
2022-11-14T19:33:50.099Z,1003.45
2022-11-14T19:34:50.104Z,1003.47
2022-11-14T19:35:50.110Z,1003.45
2022-11-14T19:36:59.693Z,1003.46
2022-11-14T19:37:50.126Z,1003.47
2022-11-14T19:38:50.128Z,1003.46
2022-11-14T19:39:50.114Z,1003.42
2022-11-14T19:40:50.133Z,1003.44
2022-11-14T19:41:50.142Z,1003.41
2022-11-14T19:42:50.161Z,1003.39
2022-11-14T19:43:50.140Z,1003.38
2022-11-14T19:44:50.148Z,1003.39
2022-11-14T19:45:50.176Z,1003.36
2022-11-14T19:46:52.104Z,1003.42
2022-11-14T19:47:50.253Z,1003.44
2022-11-14T19:48:50.217Z,1003.46
2022-11-14T19:49:50.188Z,1003.36
2022-11-14T19:50:50.205Z,1003.38
2022-11-14T19:51:50.225Z,1003.36
2022-11-14T19:52:50.201Z,1003.44
2022-11-14T19:53:50.214Z,1003.43
2022-11-14T19:54:50.218Z,1003.45
2022-11-14T19:55:50.415Z,1003.41
2022-11-14T19:56:50.223Z,1003.44
2022-11-14T19:57:50.257Z,1003.46
2022-11-14T19:58:50.232Z,1003.47
2022-11-14T19:59:50.310Z,1003.5
2022-11-14T20:00:50.248Z,1003.44
2022-11-14T20:01:50.315Z,1003.4
2022-11-14T20:02:50.267Z,1003.41
2022-11-14T20:03:50.266Z,1003.4
2022-11-14T20:04:50.298Z,1003.41
2022-11-14T20:05:50.286Z,1003.43
2022-11-14T20:06:50.320Z,1003.45
2022-11-14T20:07:50.291Z,1003.44
2022-11-14T20:08:50.298Z,1003.41
2022-11-14T20:09:50.318Z,1003.38
2022-11-14T20:10:50.324Z,1003.34
2022-11-14T20:11:50.396Z,1003.36
2022-11-14T20:12:50.380Z,1003.34
2022-11-14T20:13:50.413Z,1003.31
2022-11-14T20:14:50.337Z,1003.33
2022-11-14T20:15:50.335Z,1003.32
2022-11-14T20:16:50.348Z,1003.29
2022-11-14T20:17:50.345Z,1003.29
2022-11-14T20:18:53.314Z,1003.32
2022-11-14T20:19:50.385Z,1003.28
2022-11-14T20:20:50.990Z,1003.33
2022-11-14T20:21:50.372Z,1003.33
2022-11-14T20:22:50.387Z,1003.3
2022-11-14T20:23:50.392Z,1003.3
2022-11-14T20:24:50.394Z,1003.28
2022-11-14T20:25:50.396Z,1003.28
2022-11-14T20:26:50.411Z,1003.32
2022-11-14T20:27:50.416Z,1003.35
2022-11-14T20:28:50.419Z,1003.35
2022-11-14T20:29:50.424Z,1003.33
2022-11-14T20:30:50.427Z,1003.28
2022-11-14T20:31:50.590Z,1003.27
2022-11-14T20:32:50.438Z,1003.3
2022-11-14T20:33:50.442Z,1003.33
2022-11-14T20:34:50.456Z,1003.29
2022-11-14T20:35:50.563Z,1003.34
2022-11-14T20:37:09.706Z,1003.3
2022-11-14T20:37:50.490Z,1003.25
2022-11-14T20:38:50.472Z,1003.28
2022-11-14T20:39:50.477Z,1003.26
2022-11-14T20:40:50.483Z,1003.22
2022-11-14T20:41:50.492Z,1003.25
2022-11-14T20:42:50.498Z,1003.15
2022-11-14T20:43:50.507Z,1003.17
2022-11-14T20:44:50.514Z,1003.15
2022-11-14T20:45:50.518Z,1003.17
2022-11-14T20:46:50.535Z,1003.11
2022-11-14T20:47:50.528Z,1003.11
2022-11-14T20:48:50.530Z,1003.09
2022-11-14T20:49:50.557Z,1003.11
2022-11-14T20:50:50.546Z,1003.11
2022-11-14T20:51:50.608Z,1003.07
2022-11-14T20:52:50.609Z,1003.08
2022-11-14T20:53:50.578Z,1003.07
2022-11-14T20:54:50.610Z,1003.1
2022-11-14T20:55:50.571Z,1003.08
2022-11-14T20:56:50.579Z,1003.1
2022-11-14T20:57:50.594Z,1003.12
2022-11-14T20:58:50.598Z,1003.08
2022-11-14T20:59:50.613Z,1003.08
2022-11-14T21:00:50.798Z,1003.13
2022-11-14T21:01:50.666Z,1003.11
2022-11-14T21:02:50.825Z,1003.11
2022-11-14T21:03:50.678Z,1003.12
2022-11-14T21:04:50.623Z,1003.15
2022-11-14T21:05:50.665Z,1003.14
2022-11-14T21:06:50.702Z,1003.14
2022-11-14T21:07:50.647Z,1003.14
2022-11-14T21:08:50.682Z,1003.11
2022-11-14T21:09:50.652Z,1003.08
2022-11-14T21:10:50.668Z,1003.06
2022-11-14T21:11:50.674Z,1003.03
2022-11-14T21:12:51.286Z,1003.06
2022-11-14T21:13:50.674Z,1003.06
2022-11-14T21:14:50.677Z,1003.11
2022-11-14T21:15:50.697Z,1003.06
2022-11-14T21:16:50.696Z,1003.02
2022-11-14T21:17:50.705Z,1003.04
2022-11-14T21:18:50.719Z,1002.99
2022-11-14T21:19:50.710Z,1002.97
2022-11-14T21:20:50.720Z,1002.96
2022-11-14T21:21:50.720Z,1002.89
2022-11-14T21:22:50.723Z,1002.94
2022-11-14T21:23:50.756Z,1002.92
2022-11-14T21:24:50.762Z,1002.97
2022-11-14T21:25:50.738Z,1002.95
2022-11-14T21:26:50.752Z,1003.02
2022-11-14T21:27:50.771Z,1003
2022-11-14T21:28:50.759Z,1003.03
2022-11-14T21:29:50.762Z,1003.04
2022-11-14T21:30:50.770Z,1003.07
2022-11-14T21:31:50.767Z,1003.05
2022-11-14T21:32:50.773Z,1003.05
2022-11-14T21:33:51.410Z,1003.04
2022-11-14T21:34:50.783Z,1003.04
2022-11-14T21:35:50.858Z,1003.01
2022-11-14T21:36:50.805Z,1003
2022-11-14T21:37:50.805Z,1003.01
2022-11-14T21:38:50.810Z,1002.97
2022-11-14T21:39:50.824Z,1002.96
2022-11-14T21:40:50.851Z,1002.95
2022-11-14T21:41:50.835Z,1002.91
2022-11-14T21:42:50.840Z,1002.9
2022-11-14T21:43:50.838Z,1002.91
2022-11-14T21:44:50.845Z,1002.93
2022-11-14T21:45:50.857Z,1002.92
2022-11-14T21:46:50.859Z,1002.87
2022-11-14T21:47:50.867Z,1002.88
2022-11-14T21:48:50.866Z,1002.85
2022-11-14T21:49:50.872Z,1002.83
2022-11-14T21:50:50.884Z,1002.82
2022-11-14T21:51:50.885Z,1002.79
2022-11-14T21:52:50.899Z,1002.78
2022-11-14T21:53:50.896Z,1002.81
2022-11-14T21:54:50.901Z,1002.8
2022-11-14T21:55:50.912Z,1002.83
2022-11-14T21:56:50.932Z,1002.83
2022-11-14T21:57:50.908Z,1002.86
2022-11-14T21:58:50.929Z,1002.88
2022-11-14T21:59:50.924Z,1002.86
2022-11-14T22:00:50.934Z,1002.86
2022-11-14T22:01:50.953Z,1002.8
2022-11-14T22:02:50.939Z,1002.77
2022-11-14T22:03:50.946Z,1002.83
2022-11-14T22:04:51.226Z,1002.8
2022-11-14T22:05:50.964Z,1002.83
2022-11-14T22:06:51.016Z,1002.82
2022-11-14T22:07:50.965Z,1002.75
2022-11-14T22:08:50.988Z,1002.69
2022-11-14T22:09:50.977Z,1002.73
2022-11-14T22:10:51.085Z,1002.69
